createdAt,value
2019-02-27T00:00:21.791Z,98846.57
2019-02-27T00:02:53.768Z,98857.08
2019-02-27T00:05:23.360Z,98860.61
2019-02-27T00:07:54.984Z,98850.83
2019-02-27T00:10:23.305Z,98847.63
2019-02-27T00:12:52.463Z,98843.14
2019-02-27T00:15:20.841Z,98845.28
2019-02-27T00:17:51.394Z,98856.64
2019-02-27T00:20:19.208Z,98853.42
2019-02-27T00:22:47.855Z,98845.58
2019-02-27T00:25:17.496Z,98845.36
2019-02-27T00:27:48.725Z,98841.80
2019-02-27T00:30:15.834Z,98847.16
2019-02-27T00:32:44.134Z,98848.92
2019-02-27T00:35:12.398Z,98846.61
2019-02-27T00:37:40.678Z,98846.61
2019-02-27T00:40:08.968Z,98846.57
2019-02-27T00:42:37.284Z,98840.84
2019-02-27T00:45:08.383Z,98839.25
2019-02-27T00:47:36.852Z,98835.14
2019-02-27T00:50:07.718Z,98834.78
2019-02-27T00:52:36.075Z,98826.23
2019-02-27T00:55:07.146Z,98824.14
2019-02-27T00:57:35.404Z,98828.30
2019-02-27T01:00:06.437Z,98827.79
2019-02-27T01:02:36.359Z,98825.34
2019-02-27T01:05:08.715Z,98819.11
2019-02-27T01:07:36.179Z,98822.84
2019-02-27T01:10:06.114Z,98820.39
2019-02-27T01:12:34.414Z,98807.41
2019-02-27T01:15:02.750Z,98809.56
2019-02-27T01:17:31.056Z,98807.80
2019-02-27T01:19:59.323Z,98808.31
2019-02-27T01:22:27.690Z,98809.21
2019-02-27T01:25:06.558Z,98805.13
2019-02-27T01:27:37.949Z,98796.42
2019-02-27T01:30:08.129Z,98794.97
2019-02-27T01:32:36.397Z,98781.83
2019-02-27T01:35:06.685Z,98777.37
2019-02-27T01:37:34.977Z,98779.51
2019-02-27T01:40:03.719Z,98774.53
2019-02-27T01:42:32.893Z,98770.45
2019-02-27T01:45:01.344Z,98773.11
2019-02-27T01:47:29.739Z,98769.90
2019-02-27T01:49:58.104Z,98770.97
2019-02-27T01:52:26.406Z,98772.45
2019-02-27T01:54:54.676Z,98764.83
2019-02-27T01:57:25.715Z,98759.50
2019-02-27T01:59:54.043Z,98756.49
2019-02-27T02:02:22.308Z,98758.64
2019-02-27T02:04:52.968Z,98761.52
2019-02-27T02:07:20.662Z,98759.71
2019-02-27T02:09:48.932Z,98760.80
2019-02-27T02:12:20.097Z,98752.28
2019-02-27T02:15:00.550Z,98760.08
2019-02-27T02:17:41.654Z,98767.17
2019-02-27T02:20:27.200Z,98760.23
2019-02-27T02:23:07.236Z,98760.61
2019-02-27T02:25:51.047Z,98758.83
2019-02-27T02:28:37.410Z,98753.68
2019-02-27T02:31:25.427Z,98749.77
2019-02-27T02:34:05.439Z,98760.02
2019-02-27T02:36:45.358Z,98753.63
2019-02-27T02:39:33.574Z,98744.56
2019-02-27T02:42:32.221Z,98595.58
2019-02-27T02:45:15.714Z,98744.88
2019-02-27T02:48:08.722Z,98749.17
2019-02-27T02:50:55.145Z,98747.18
2019-02-27T02:53:32.371Z,98740.25
2019-02-27T02:56:12.923Z,98745.72
2019-02-27T02:58:56.455Z,98751.39
2019-02-27T03:01:30.736Z,98750.84
2019-02-27T03:04:02.339Z,98754.20
2019-02-27T03:06:37.060Z,98744.13
2019-02-27T03:09:13.808Z,98743.24
2019-02-27T03:11:54.880Z,98737.95
2019-02-27T03:14:45.494Z,98735.28
2019-02-27T03:17:25.721Z,98740.25
2019-02-27T03:20:02.860Z,98739.02
2019-02-27T03:22:41.644Z,98742.55
2019-02-27T03:25:19.485Z,98740.80
2019-02-27T03:27:53.742Z,98731.05
2019-02-27T03:30:34.120Z,98731.40
2019-02-27T03:33:24.429Z,98733.17
2019-02-27T03:36:07.171Z,98733.88
2019-02-27T03:38:44.245Z,98736.52
2019-02-27T03:41:39.747Z,98739.16
2019-02-27T03:44:27.708Z,98743.05
2019-02-27T03:47:17.061Z,98749.95
2019-02-27T03:50:00.788Z,98750.14
2019-02-27T03:52:47.506Z,98749.80
2019-02-27T03:55:32.917Z,98746.94
2019-02-27T03:58:30.592Z,98741.05
2019-02-27T04:01:18.083Z,98735.48
2019-02-27T04:03:58.586Z,98729.77
2019-02-27T04:06:30.166Z,98272.53
2019-02-27T04:08:58.482Z,98735.84
2019-02-27T04:11:26.745Z,98735.33
2019-02-27T04:13:55.022Z,98735.55
2019-02-27T04:16:28.827Z,98737.67
2019-02-27T04:18:53.388Z,98744.06
2019-02-27T04:21:25.016Z,98745.59
2019-02-27T04:23:51.755Z,98748.77
2019-02-27T04:26:20.099Z,98746.78
2019-02-27T04:28:48.365Z,98744.28
2019-02-27T04:31:16.630Z,98744.80
2019-02-27T04:33:45.023Z,98744.25
2019-02-27T04:36:13.477Z,98745.62
2019-02-27T04:38:41.928Z,98737.81
2019-02-27T04:41:10.202Z,98744.84
2019-02-27T04:43:38.458Z,98743.08
2019-02-27T04:46:06.723Z,98744.16
2019-02-27T04:48:34.977Z,98743.97
2019-02-27T04:51:03.278Z,98744.69
2019-02-27T04:53:32.504Z,98746.64
2019-02-27T04:56:00.906Z,98747.69
2019-02-27T04:58:31.220Z,98739.51
2019-02-27T05:00:59.814Z,98127.48
2019-02-27T05:03:28.614Z,98745.00
2019-02-27T05:05:57.099Z,98750.81
2019-02-27T05:08:27.134Z,98755.44
2019-02-27T05:10:57.083Z,98753.30
2019-02-27T05:13:25.335Z,98752.21
2019-02-27T05:15:53.708Z,98752.21
2019-02-27T05:18:22.006Z,98748.45
2019-02-27T05:20:50.276Z,98742.90
2019-02-27T05:23:18.628Z,98746.34
2019-02-27T05:25:46.916Z,98747.51
2019-02-27T05:28:15.180Z,98745.88
2019-02-27T05:30:45.227Z,98746.89
2019-02-27T05:33:13.570Z,98750.84
2019-02-27T05:35:41.906Z,98747.12
2019-02-27T05:38:10.302Z,98754.52
2019-02-27T05:40:38.610Z,98752.85
2019-02-27T05:43:06.937Z,98754.28
2019-02-27T05:45:35.228Z,98744.23
2019-02-27T05:48:03.517Z,98694.84
2019-02-27T05:50:34.138Z,98744.23
2019-02-27T05:53:01.879Z,98742.27
2019-02-27T05:55:30.206Z,98745.31
2019-02-27T05:57:58.507Z,98758.56
2019-02-27T06:00:26.789Z,98744.56
2019-02-27T06:02:56.957Z,98752.85
2019-02-27T06:05:25.236Z,98751.98
2019-02-27T06:07:53.587Z,98752.47
2019-02-27T06:10:23.578Z,98752.98
2019-02-27T06:12:52.002Z,98758.75
2019-02-27T06:15:20.342Z,98759.99
2019-02-27T06:17:49.703Z,98753.47
2019-02-27T06:20:18.120Z,98748.19
2019-02-27T06:22:46.418Z,98748.19
2019-02-27T06:25:21.688Z,98753.99
2019-02-27T06:27:47.925Z,98744.80
2019-02-27T06:30:17.937Z,98746.94
2019-02-27T06:32:46.211Z,98740.38
2019-02-27T06:35:15.041Z,98752.19
2019-02-27T06:37:43.398Z,98754.17
2019-02-27T06:40:18.238Z,98744.80
2019-02-27T06:42:46.816Z,98755.27
2019-02-27T06:45:16.841Z,98752.47
2019-02-27T06:47:45.124Z,98753.52
2019-02-27T06:50:16.808Z,98758.85
2019-02-27T06:52:45.171Z,98550.09
2019-02-27T06:55:14.563Z,98759.80
2019-02-27T06:57:42.933Z,98757.84
2019-02-27T07:00:22.466Z,98757.33
2019-02-27T07:02:55.163Z,98756.13
2019-02-27T07:05:20.765Z,98761.99
2019-02-27T07:07:49.043Z,98763.12
2019-02-27T07:10:20.027Z,98754.64
2019-02-27T07:12:48.510Z,98752.20
2019-02-27T07:15:21.044Z,98754.34
2019-02-27T07:17:49.336Z,98756.72
2019-02-27T07:20:17.658Z,98746.28
2019-02-27T07:22:46.764Z,98298.38
2019-02-27T07:25:17.790Z,98743.45
2019-02-27T07:27:46.050Z,98744.02
2019-02-27T07:30:19.415Z,98748.64
2019-02-27T07:32:47.666Z,98754.69
2019-02-27T07:35:16.395Z,98751.16
2019-02-27T07:37:47.155Z,98745.55
2019-02-27T07:40:19.840Z,98746.48
2019-02-27T07:42:48.106Z,98741.59
2019-02-27T07:45:22.567Z,98749.27
2019-02-27T07:47:50.785Z,98747.55
2019-02-27T07:50:19.984Z,98749.01
2019-02-27T07:52:48.245Z,98744.98
2019-02-27T07:55:22.943Z,98745.92
2019-02-27T07:57:51.094Z,98743.64
2019-02-27T08:00:22.931Z,98750.61
2019-02-27T08:02:51.182Z,98755.78
2019-02-27T08:05:19.440Z,98754.38
2019-02-27T08:07:49.097Z,98755.81
2019-02-27T08:10:22.942Z,98749.97
2019-02-27T08:12:55.493Z,98757.05
2019-02-27T08:15:21.214Z,98756.73
2019-02-27T08:17:49.546Z,98748.17
2019-02-27T08:20:20.464Z,98753.48
2019-02-27T08:22:48.236Z,98744.55
2019-02-27T08:25:20.768Z,98744.45
2019-02-27T08:27:49.061Z,98743.95
2019-02-27T08:30:20.582Z,98744.11
2019-02-27T08:32:48.849Z,98736.45
2019-02-27T08:35:17.128Z,98738.58
2019-02-27T08:37:45.385Z,98737.05
2019-02-27T08:40:14.580Z,98739.44
2019-02-27T08:42:42.938Z,98724.27
2019-02-27T08:45:19.670Z,98724.33
2019-02-27T08:47:45.695Z,98724.45
2019-02-27T08:50:15.832Z,98710.91
2019-02-27T08:52:44.668Z,98706.54
2019-02-27T08:55:19.920Z,98705.25
2019-02-27T08:57:44.689Z,98704.77
2019-02-27T09:00:27.493Z,98704.48
2019-02-27T09:02:55.968Z,98703.07
2019-02-27T09:05:24.295Z,98699.54
2019-02-27T09:07:52.576Z,98688.73
2019-02-27T09:10:27.538Z,98694.83
2019-02-27T09:13:04.378Z,98686.66
2019-02-27T09:15:24.684Z,98688.30
2019-02-27T09:17:52.934Z,98689.58
2019-02-27T09:20:21.734Z,98681.14
2019-02-27T09:22:50.002Z,98567.17
2019-02-27T09:25:18.269Z,98681.52
2019-02-27T09:27:46.525Z,98678.78
2019-02-27T09:30:22.985Z,98669.57
2019-02-27T09:32:51.269Z,98667.07
2019-02-27T09:35:19.601Z,98479.83
2019-02-27T09:37:48.266Z,98654.25
2019-02-27T09:40:25.144Z,98643.20
2019-02-27T09:42:53.924Z,98647.05
2019-02-27T09:45:35.089Z,98643.28
2019-02-27T09:48:03.667Z,98641.29
2019-02-27T09:50:47.578Z,98634.89
2019-02-27T09:53:12.797Z,98632.50
2019-02-27T09:55:41.092Z,98619.84
2019-02-27T09:58:11.526Z,98619.42
2019-02-27T10:00:47.878Z,98620.27
2019-02-27T10:03:20.218Z,98617.34
2019-02-27T10:05:46.238Z,98615.93
2019-02-27T10:08:14.494Z,98613.73
2019-02-27T10:10:45.819Z,98610.58
2019-02-27T10:13:12.816Z,98603.97
2019-02-27T10:15:41.080Z,98602.70
2019-02-27T10:18:09.377Z,98594.50
2019-02-27T10:20:38.042Z,98584.81
2019-02-27T10:23:06.373Z,98589.47
2019-02-27T10:25:34.641Z,98591.26
2019-02-27T10:28:04.489Z,98588.08
2019-02-27T10:30:32.917Z,98581.45
2019-02-27T10:33:03.171Z,98574.59
2019-02-27T10:35:31.147Z,98575.34
2019-02-27T10:37:59.439Z,98568.97
2019-02-27T10:40:27.830Z,98567.96
2019-02-27T10:42:56.103Z,98565.94
2019-02-27T10:45:24.437Z,98562.33
2019-02-27T10:47:52.805Z,98559.58
2019-02-27T10:50:21.080Z,98551.00
2019-02-27T10:52:50.217Z,98550.57
2019-02-27T10:55:23.039Z,98542.32
2019-02-27T10:57:51.500Z,98538.55
2019-02-27T11:00:27.462Z,98536.13
2019-02-27T11:02:55.796Z,98536.75
2019-02-27T11:05:26.718Z,98534.22
2019-02-27T11:07:55.219Z,98534.27
2019-02-27T11:10:23.670Z,98533.65
2019-02-27T11:12:51.930Z,98532.98
2019-02-27T11:15:21.432Z,98526.52
2019-02-27T11:17:49.789Z,98522.70
2019-02-27T11:20:21.073Z,98511.09
2019-02-27T11:22:48.046Z,98510.34
2019-02-27T11:25:27.070Z,98509.22
2019-02-27T11:27:55.442Z,98501.89
2019-02-27T11:30:37.664Z,98493.80
2019-02-27T11:33:06.038Z,98488.12
2019-02-27T11:35:34.521Z,98486.19
2019-02-27T11:38:02.880Z,98481.88
2019-02-27T11:40:31.149Z,98477.11
2019-02-27T11:43:01.133Z,98477.86
2019-02-27T11:45:29.840Z,98469.37
2019-02-27T11:47:58.257Z,98468.95
2019-02-27T11:50:26.684Z,98464.84
2019-02-27T11:53:01.794Z,98466.27
2019-02-27T11:55:27.862Z,98454.44
2019-02-27T11:57:56.170Z,98444.95
2019-02-27T12:00:27.081Z,98438.31
2019-02-27T12:02:55.811Z,98436.09
2019-02-27T12:05:24.292Z,98432.75
2019-02-27T12:07:52.700Z,98434.55
2019-02-27T12:10:25.777Z,98418.28
2019-02-27T12:12:59.718Z,98420.19
2019-02-27T12:15:24.117Z,98419.30
2019-02-27T12:17:52.568Z,98419.90
2019-02-27T12:20:24.509Z,98419.70
2019-02-27T12:22:52.869Z,98418.58
2019-02-27T12:25:26.920Z,98413.66
2019-02-27T12:27:56.486Z,98405.77
2019-02-27T12:30:26.592Z,98402.10
2019-02-27T12:32:57.597Z,98402.41
2019-02-27T12:35:34.080Z,98392.80
2019-02-27T12:38:06.828Z,98390.51
2019-02-27T12:40:32.687Z,98387.02
2019-02-27T12:43:00.984Z,98388.14
2019-02-27T12:45:32.325Z,98383.48
2019-02-27T12:48:00.787Z,98375.68
2019-02-27T12:50:31.394Z,98372.52
2019-02-27T12:53:01.383Z,98371.29
2019-02-27T12:55:29.716Z,98372.45
2019-02-27T12:57:57.966Z,98365.61
2019-02-27T13:00:30.840Z,98356.84
2019-02-27T13:03:08.430Z,98363.37
2019-02-27T13:05:34.531Z,98356.56
2019-02-27T13:08:02.872Z,98353.13
2019-02-27T13:10:34.163Z,98346.37
2019-02-27T13:13:01.192Z,98344.66
2019-02-27T13:15:30.111Z,98333.06
2019-02-27T13:17:58.408Z,98336.86
2019-02-27T13:20:28.287Z,98339.80
2019-02-27T13:22:56.740Z,98337.17
2019-02-27T13:25:25.051Z,98337.00
2019-02-27T13:27:53.380Z,98334.52
2019-02-27T13:30:25.912Z,98320.73
2019-02-27T13:32:54.164Z,98321.39
2019-02-27T13:35:22.997Z,98318.66
2019-02-27T13:37:52.365Z,98318.16
2019-02-27T13:40:34.932Z,98311.94
2019-02-27T13:43:01.159Z,98306.67
2019-02-27T13:45:31.005Z,98302.71
2019-02-27T13:48:04.941Z,98294.91
2019-02-27T13:50:29.255Z,98298.53
2019-02-27T13:52:57.511Z,98287.84
2019-02-27T13:55:25.776Z,98278.52
2019-02-27T13:57:58.831Z,98273.52
2019-02-27T14:00:31.342Z,98268.37
2019-02-27T14:02:59.592Z,98268.09
2019-02-27T14:05:29.409Z,98266.87
2019-02-27T14:07:58.787Z,98260.41
2019-02-27T14:10:29.257Z,98260.49
2019-02-27T14:12:57.508Z,98260.64
2019-02-27T14:15:27.274Z,98251.03
2019-02-27T14:17:55.768Z,98251.59
2019-02-27T14:20:27.012Z,98256.77
2019-02-27T14:22:54.560Z,98258.08
2019-02-27T14:25:28.464Z,98254.90
2019-02-27T14:27:55.493Z,98254.89
2019-02-27T14:30:26.395Z,98251.97
2019-02-27T14:32:54.743Z,98251.33
2019-02-27T14:35:23.000Z,98250.97
2019-02-27T14:37:51.250Z,98252.08
2019-02-27T14:40:21.351Z,98243.19
2019-02-27T14:42:53.929Z,98236.58
2019-02-27T14:45:21.524Z,98239.20
2019-02-27T14:47:49.793Z,98236.23
2019-02-27T14:50:19.802Z,98238.87
2019-02-27T14:52:49.954Z,98235.86
2019-02-27T14:55:18.462Z,98234.67
2019-02-27T14:57:49.922Z,98230.05
2019-02-27T15:00:24.427Z,98229.34
2019-02-27T15:02:55.704Z,98229.88
2019-02-27T15:05:22.918Z,98228.56
2019-02-27T15:07:53.473Z,98225.28
2019-02-27T15:10:21.820Z,98222.57
2019-02-27T15:12:53.972Z,98215.58
2019-02-27T15:15:25.728Z,98205.54
2019-02-27T15:17:54.280Z,98208.44
2019-02-27T15:20:24.352Z,98210.03
2019-02-27T15:22:53.609Z,98208.84
2019-02-27T15:25:22.071Z,98206.84
2019-02-27T15:27:50.355Z,98199.16
2019-02-27T15:30:24.190Z,98195.55
2019-02-27T15:32:52.822Z,98197.55
2019-02-27T15:35:22.196Z,98188.22
2019-02-27T15:37:50.689Z,98149.48
2019-02-27T15:40:20.801Z,98178.02
2019-02-27T15:42:49.060Z,98174.88
2019-02-27T15:45:21.896Z,98170.80
2019-02-27T15:47:50.148Z,98168.60
2019-02-27T15:50:23.744Z,98169.88
2019-02-27T15:52:52.002Z,98168.84
2019-02-27T15:55:20.256Z,98170.22
2019-02-27T15:57:52.014Z,98165.58
2019-02-27T16:00:27.900Z,98162.19
2019-02-27T16:02:56.170Z,98154.91
2019-02-27T16:05:30.160Z,98164.66
2019-02-27T16:07:54.493Z,98160.67
2019-02-27T16:10:26.807Z,98155.50
2019-02-27T16:12:59.972Z,98152.26
2019-02-27T16:15:25.224Z,98146.52
2019-02-27T16:17:53.498Z,98152.16
2019-02-27T16:20:25.504Z,98149.64
2019-02-27T16:22:53.762Z,98153.52
2019-02-27T16:25:24.137Z,98146.80
2019-02-27T16:27:52.389Z,98146.20
2019-02-27T16:30:23.349Z,98144.84
2019-02-27T16:32:51.601Z,98150.75
2019-02-27T16:35:19.880Z,98151.03
2019-02-27T16:37:48.200Z,98152.86
2019-02-27T16:40:18.865Z,98151.16
2019-02-27T16:42:47.394Z,98146.82
2019-02-27T16:45:18.508Z,98140.16
2019-02-27T16:47:46.771Z,98147.28
2019-02-27T16:50:23.925Z,98139.72
2019-02-27T16:52:50.578Z,98136.19
2019-02-27T16:55:23.628Z,98128.56
2019-02-27T16:57:56.298Z,98135.13
2019-02-27T17:00:32.241Z,98129.02
2019-02-27T17:03:00.495Z,98131.73
2019-02-27T17:05:28.744Z,98125.61
2019-02-27T17:08:00.285Z,98127.70
2019-02-27T17:10:29.667Z,98126.27
2019-02-27T17:12:58.002Z,98125.91
2019-02-27T17:15:26.267Z,98121.55
2019-02-27T17:17:54.514Z,98116.88
2019-02-27T17:20:24.615Z,98122.61
2019-02-27T17:22:52.868Z,98123.88
2019-02-27T17:25:21.114Z,98125.09
2019-02-27T17:27:50.894Z,98126.59
2019-02-27T17:30:30.451Z,98129.69
2019-02-27T17:33:01.397Z,98123.67
2019-02-27T17:35:28.719Z,98122.95
2019-02-27T17:37:58.308Z,98122.70
2019-02-27T17:40:26.716Z,97992.05
2019-02-27T17:42:55.007Z,98120.84
2019-02-27T17:45:25.350Z,98118.97
2019-02-27T17:47:53.616Z,98114.50
2019-02-27T17:50:21.868Z,98106.61
2019-02-27T17:52:50.133Z,98118.22
2019-02-27T17:55:19.231Z,98111.34
2019-02-27T17:57:47.492Z,98115.25
2019-02-27T18:00:20.654Z,97942.55
2019-02-27T18:02:48.983Z,98114.09
2019-02-27T18:05:17.237Z,98116.73
2019-02-27T18:07:45.530Z,98119.41
2019-02-27T18:10:14.821Z,98123.81
2019-02-27T18:12:43.086Z,98122.06
2019-02-27T18:15:19.998Z,98117.68
2019-02-27T18:17:46.179Z,98113.56
2019-02-27T18:20:14.449Z,98115.45
2019-02-27T18:22:42.714Z,98116.83
2019-02-27T18:25:13.967Z,98117.58
2019-02-27T18:27:42.238Z,98111.55
2019-02-27T18:30:15.508Z,98115.78
2019-02-27T18:32:43.402Z,98104.09
2019-02-27T18:35:12.939Z,98103.85
2019-02-27T18:37:41.214Z,98097.81
2019-02-27T18:40:11.856Z,98089.39
2019-02-27T18:42:40.079Z,98094.16
2019-02-27T18:45:14.987Z,98090.09
2019-02-27T18:47:41.183Z,98092.94
2019-02-27T18:50:12.442Z,98094.17
2019-02-27T18:52:40.719Z,98084.61
2019-02-27T18:55:16.512Z,98078.95
2019-02-27T18:57:47.210Z,98088.67
2019-02-27T19:00:21.019Z,98087.66
2019-02-27T19:02:51.994Z,98093.39
2019-02-27T19:05:20.753Z,98092.59
2019-02-27T19:07:53.815Z,98089.16
2019-02-27T19:10:19.033Z,98087.91
2019-02-27T19:12:47.268Z,98090.59
2019-02-27T19:15:17.779Z,98093.32
2019-02-27T19:17:46.105Z,98094.03
2019-02-27T19:20:24.839Z,98092.02
2019-02-27T19:22:53.119Z,98089.28
2019-02-27T19:25:21.379Z,98081.48
2019-02-27T19:27:50.540Z,98076.23
2019-02-27T19:30:19.466Z,98081.39
2019-02-27T19:32:48.367Z,98076.92
2019-02-27T19:35:21.130Z,98075.70
2019-02-27T19:37:46.901Z,98073.20
2019-02-27T19:40:17.850Z,98070.08
2019-02-27T19:42:51.211Z,98062.97
2019-02-27T19:45:19.583Z,98057.49
2019-02-27T19:47:49.698Z,98054.52
2019-02-27T19:50:18.231Z,98053.47
2019-02-27T19:52:50.823Z,98052.14
2019-02-27T19:55:20.556Z,98054.03
2019-02-27T19:57:50.388Z,98062.86
2019-02-27T20:00:26.089Z,98059.36
2019-02-27T20:03:01.144Z,98058.19
2019-02-27T20:05:30.335Z,98057.55
2019-02-27T20:08:02.245Z,98054.52
2019-02-27T20:10:33.140Z,98051.46
2019-02-27T20:13:03.167Z,98047.08
2019-02-27T20:15:31.453Z,98049.16
2019-02-27T20:17:59.748Z,98045.73
2019-02-27T20:20:29.955Z,98037.97
2019-02-27T20:22:58.111Z,98037.52
2019-02-27T20:25:28.843Z,98032.78
2019-02-27T20:27:58.707Z,98027.21
2019-02-27T20:30:27.140Z,98023.04
2019-02-27T20:32:55.477Z,98023.92
2019-02-27T20:35:23.751Z,98024.78
2019-02-27T20:37:52.026Z,98029.84
2019-02-27T20:40:20.895Z,98025.50
2019-02-27T20:42:50.453Z,98028.89
2019-02-27T20:45:20.467Z,98025.00
2019-02-27T20:47:48.849Z,98030.95
2019-02-27T20:50:34.472Z,98033.47
2019-02-27T20:52:56.190Z,98032.31
2019-02-27T20:55:24.461Z,98036.55
2019-02-27T20:57:52.708Z,98030.41
2019-02-27T21:00:22.353Z,98026.44
2019-02-27T21:02:53.507Z,98024.54
2019-02-27T21:05:21.204Z,98022.25
2019-02-27T21:07:49.466Z,98024.25
2019-02-27T21:10:23.631Z,98014.78
2019-02-27T21:12:54.217Z,98018.09
2019-02-27T21:15:21.909Z,98014.91
2019-02-27T21:17:50.179Z,98010.72
2019-02-27T21:20:18.456Z,98008.47
2019-02-27T21:22:46.717Z,98004.30
2019-02-27T21:25:15.736Z,98004.00
2019-02-27T21:27:44.097Z,98001.92
2019-02-27T21:30:20.395Z,98001.12
2019-02-27T21:32:48.680Z,98000.50
2019-02-27T21:35:16.942Z,98003.79
2019-02-27T21:37:45.765Z,98000.55
2019-02-27T21:40:18.637Z,97992.98
2019-02-27T21:42:46.945Z,97871.72
2019-02-27T21:45:17.695Z,97993.88
2019-02-27T21:47:51.407Z,97992.23
2019-02-27T21:50:19.573Z,97993.48
2019-02-27T21:52:48.094Z,97990.84
2019-02-27T21:55:16.378Z,97989.30
2019-02-27T21:57:44.638Z,97985.11
2019-02-27T22:00:19.065Z,97984.81
2019-02-27T22:02:47.477Z,97983.66
2019-02-27T22:05:18.926Z,97976.88
2019-02-27T22:07:46.058Z,97968.45
2019-02-27T22:10:19.059Z,97973.03
2019-02-27T22:12:45.746Z,97974.91
2019-02-27T22:15:21.880Z,97972.78
2019-02-27T22:17:47.066Z,97972.27
2019-02-27T22:20:15.336Z,97968.16
2019-02-27T22:22:43.637Z,97963.26
2019-02-27T22:25:12.731Z,97955.84
2019-02-27T22:27:43.239Z,97953.09
2019-02-27T22:30:16.644Z,97951.24
2019-02-27T22:32:47.756Z,97945.44
2019-02-27T22:35:15.062Z,97949.02
2019-02-27T22:37:43.323Z,97944.39
2019-02-27T22:40:14.291Z,97949.06
2019-02-27T22:42:42.571Z,97943.19
2019-02-27T22:45:13.022Z,97936.20
2019-02-27T22:47:41.358Z,97930.84
2019-02-27T22:50:12.446Z,97925.56
2019-02-27T22:52:40.730Z,97925.02
2019-02-27T22:55:10.712Z,97927.01
2019-02-27T22:57:39.311Z,97926.70
2019-02-27T23:00:30.169Z,97927.13
2019-02-27T23:02:58.535Z,97923.59
2019-02-27T23:05:26.866Z,97417.31
2019-02-27T23:07:55.156Z,97925.73
2019-02-27T23:10:23.436Z,97923.61
2019-02-27T23:12:51.715Z,97920.07
2019-02-27T23:15:19.991Z,97921.94
2019-02-27T23:17:48.328Z,97919.38
2019-02-27T23:20:17.568Z,97925.83
2019-02-27T23:22:46.622Z,97928.53
2019-02-27T23:25:15.641Z,97929.95
2019-02-27T23:27:44.631Z,97915.97
2019-02-27T23:30:15.897Z,97919.89
2019-02-27T23:32:42.953Z,97913.52
2019-02-27T23:35:15.986Z,97904.35
2019-02-27T23:37:41.246Z,97905.13
2019-02-27T23:40:09.493Z,97902.00
2019-02-27T23:42:37.764Z,97903.51
2019-02-27T23:45:10.259Z,97901.56
2019-02-27T23:47:38.269Z,97890.14
2019-02-27T23:50:10.796Z,97891.22
2019-02-27T23:52:39.784Z,97888.90
2019-02-27T23:55:09.969Z,97889.19
2019-02-27T23:57:40.802Z,97888.77
